Saturday, February 13, 2016
11:03 UTC
  |  Log In   |  Register Free
Airport Search:

New Richmond Regional Airport
(KRNH)

New Richmond Regional Airport Diagram
No Airport Diagram Available

FAA data valid effective Feb 4 2016 - Mar 31 2016 (unless otherwise noted).

 
 
 
 
 
 
 
 
 
 
 
 
 
 
Current Aviation Weather for KRNH

Weather Summary


The most recent METAR observation for RNH was updated at: 12:55 UTC
METAR for KRNH is not available. Closest METAR is for KOEO
KRNH  (most recent observation was updatred at 13:10 UTC)
131035Z AUTO 34003KT 10SM CLR M22/M27 A3061 RMK AO2 T12251275

KOEO  (11.6 nm SE)   (most recent observation was updated at 13:10 UTC)
131035Z AUTO 33004KT 10SM CLR M21/M26 A3065 RMK AO2 T12111261

K21D  (16.2 nm NE)   (most recent observation was updated at 13:10 UTC)
131034Z AUTO 00000KT 10SM CLR M21/M25 A3063 RMK AO2

TAF for KRNH is not available.
KRNH
130520Z 1306/1406 31004KT P6SM SKC FM131200 VRB02KT P6SM FEW250 FM132000 16005KT P6SM SCT250 FM140200 13005KT P6SM OVC100

KMSP  (33.1 nm NE)   (most recent observation was updatred at 13:08 UTC)
AMD 130841Z 1309/1412 31005KT P6SM SKC FM131200 VRB02KT P6SM FEW250 FM131800 16004KT P6SM SCT250 FM140600 13007KT P6SM OVC100 FM140900 12007KT P6SM OVC050
GlobalAir.com is loading additional information.
 Current Weather at RNH
-9.0 F° (-22.6 C°)

Northwest winds at 4.6 mph
Pressure:
30.61 in
Humidity:
64%
Wind:
Northwest at 4.6 mph
Dew Point:
-17.5 F° (-27.5 C°)
Visibility:
10.00 mi
RNH NOAA Radar




Find All Airport Services Find A Hotel Find A Rental Car Find A Golf Course Find A Restaurant $100 Hamburger



Airport Weather Forecast for KRNH

Translated METAR for KRNH (1035 UTC)
METAR:
KRNH 131035Z AUTO 34003KT 10SM CLR M22/M27 A3061 RMK AO2 T12251275
Conditions at:
KRNH (New Richmond Rgnl, WI) observed 1035 UTC 13 February 2016
Temperature:
-22°C (-7.6°F)
Dewpoint:
-27°C (-16.6°F) [RH = 63.9]
Pressure:
30.61 inches Hg (1036.6 mb)
Winds:
from the NNW (340 degrees) at 3.5 mph (3 knots: 1.5 m/s)
Visibility:
10 mile(s)
Ceiling:
at least 12,000 feet AGL
Clouds:
Clear below 12,000 feet AGL
Remarks:
site is un-manned
site is automated and HAS a precipitation sensor

Translated TAF for KRNH (New Richmond Rgnl, WI) (0520 UTC)
TAF text:
KRNH 130520Z 1306/1406 31004KT P6SM SKC
Forecast period:
Saturday Feb 13 2016 06:00 UTC - Sunday Feb 14 2016 06:00 UTC
Forecast type:
FROM: standard forecast or significant change
Winds:
from the NW (310 degrees) at 4.6 mph (4 knots: 2.1 m/s)
Visibility:
6 or more mile(s) (9.7+ km)
Ceiling:
at least 12,000 feet AGL
Clouds:
Clear Skies
Weather:
no significant weather observed at this time
TAF text:
FM131200 VRB02KT P6SM FEW250
Forecast period:
Saturday Feb 13 2016 12:00 UTC - Saturday Feb 13 2016 20:00 UTC
Forecast type:
FROM: standard forecast or significant change
Winds:
variable wind direction at 2.3 mph (2 knots: 1 m/s)
Visibility:
6 or more mile(s) (9.7+ km)
Ceiling:
at least 12,000 feet AGL
Clouds:
Few Clouds at 25,000 feet AGL
Weather:
no significant weather observed at this time
TAF text:
FM132000 16005KT P6SM SCT250
Forecast period:
Saturday Feb 13 2016 20:00 UTC - Sunday Feb 14 2016 02:00 UTC
Forecast type:
FROM: standard forecast or significant change
Winds:
from the SSE (160 degrees) at 5.8 mph (5 knots: 2.6 m/s)
Visibility:
6 or more mile(s) (9.7+ km)
Ceiling:
at least 12,000 feet AGL
Clouds:
Scattered Clouds at 25,000 feet AGL
Weather:
no significant weather observed at this time
TAF text:
FM140200 13005KT P6SM OVC100
Forecast period:
Sunday Feb 14 2016 02:00 UTC - Sunday Feb 14 2016 06:00 UTC
Forecast type:
FROM: standard forecast or significant change
Winds:
from the SE (130 degrees) at 5.8 mph (5 knots: 2.6 m/s)
Visibility:
6 or more mile(s) (9.7+ km)
Ceiling:
10,000 feet AGL
Clouds:
Overcast Skies at 10,000 feet AGL
Weather:
no significant weather observed at this time
FBO's on the Field
FBO Company Facility Photos Services Transportation Aviation Fuel Prices: Prices include tax
Catering Weather Repair Courtesy Rental Type 100LL JetA JetA+ MOGAS 8087
 
Griggs Aviation

This FBO has not yet been rated
FS:Independent
Last Updated: Feb-05
Login to update fuel prices
SS:
Contact Griggs AviationMore FBO Information
 
Add another FBO Facility Photos Catering Weather Repair Courtesy Rental Type 100LL JetA JetA+ MOGAS 8087
Services Transportation Aviation Fuel Prices: Prices include tax


model-print
model-print
model-print
model-print